Rockledge, Florida
Current Conditions -  °F | °C
As of 10:58 PM on Saturday 22 Nov 2014 (Local Time) from KCOF Reporting Station
Broken Clouds Broken Clouds  
Wind Chill: 73°   Ceiling: 3500
Heat Index: 73°   Visibility: 10mi
Dew Point: 68°   Wind: 17mph
Humidity: 85%   Direction: 100°E
Pressure: 30.13"   Gusts: NA
Location:  28.33°N, 80.73°W
Report Text: KCOF 230358Z AUTO 10015KT 10SM SCT027 BKN035 23/20 A3013 RMK AO2 SLP207 T02260200
Loading
Personal Weather Stations






























Interactive Weather Map New forecast layout! Learn more

10-Day Weather Forecast

Advertisements
Track Severe Weather on mobile